sensor_id;sensor_type;location;lat;lon;timestamp;P1;durP1;ratioP1;P2;durP2;ratioP2
78346;SDS011;67803;41.330;69.282;2023-04-25T00:00:46;19.85;;;7.13;;
78346;SDS011;67803;41.330;69.282;2023-04-25T00:03:17;16.48;;;7.07;;
78346;SDS011;67803;41.330;69.282;2023-04-25T00:05:48;21.38;;;7.47;;
78346;SDS011;67803;41.330;69.282;2023-04-25T00:08:19;16.42;;;6.32;;
78346;SDS011;67803;41.330;69.282;2023-04-25T00:10:49;17.33;;;6.50;;
78346;SDS011;67803;41.330;69.282;2023-04-25T00:13:20;13.20;;;5.72;;
78346;SDS011;67803;41.330;69.282;2023-04-25T00:15:51;17.42;;;5.78;;
78346;SDS011;67803;41.330;69.282;2023-04-25T00:18:23;17.60;;;6.45;;
78346;SDS011;67803;41.330;69.282;2023-04-25T00:20:53;22.08;;;7.05;;
78346;SDS011;67803;41.330;69.282;2023-04-25T00:23:24;17.75;;;5.55;;
78346;SDS011;67803;41.330;69.282;2023-04-25T00:25:54;18.38;;;6.35;;
78346;SDS011;67803;41.330;69.282;2023-04-25T00:28:25;16.80;;;5.47;;
78346;SDS011;67803;41.330;69.282;2023-04-25T00:30:55;14.77;;;5.57;;
78346;SDS011;67803;41.330;69.282;2023-04-25T00:33:26;18.55;;;6.13;;
78346;SDS011;67803;41.330;69.282;2023-04-25T00:35:56;17.50;;;5.40;;
78346;SDS011;67803;41.330;69.282;2023-04-25T00:38:27;17.92;;;6.07;;
78346;SDS011;67803;41.330;69.282;2023-04-25T00:40:57;20.05;;;6.90;;
78346;SDS011;67803;41.330;69.282;2023-04-25T00:43:28;18.08;;;5.78;;
78346;SDS011;67803;41.330;69.282;2023-04-25T00:46:00;18.45;;;6.18;;
78346;SDS011;67803;41.330;69.282;2023-04-25T00:48:31;15.63;;;5.32;;
78346;SDS011;67803;41.330;69.282;2023-04-25T00:51:01;16.27;;;5.03;;
78346;SDS011;67803;41.330;69.282;2023-04-25T00:53:32;16.30;;;5.35;;
78346;SDS011;67803;41.330;69.282;2023-04-25T00:56:02;18.77;;;6.00;;
78346;SDS011;67803;41.330;69.282;2023-04-25T00:58:33;21.98;;;6.10;;
78346;SDS011;67803;41.330;69.282;2023-04-25T01:01:03;27.55;;;5.60;;
78346;SDS011;67803;41.330;69.282;2023-04-25T01:03:34;26.65;;;5.90;;
78346;SDS011;67803;41.330;69.282;2023-04-25T01:06:10;22.25;;;6.05;;
78346;SDS011;67803;41.330;69.282;2023-04-25T01:08:41;19.42;;;5.60;;
78346;SDS011;67803;41.330;69.282;2023-04-25T01:11:11;18.17;;;5.40;;
78346;SDS011;67803;41.330;69.282;2023-04-25T01:13:42;17.45;;;5.50;;
78346;SDS011;67803;41.330;69.282;2023-04-25T01:16:12;19.02;;;5.40;;
78346;SDS011;67803;41.330;69.282;2023-04-25T01:18:43;15.70;;;6.10;;
78346;SDS011;67803;41.330;69.282;2023-04-25T01:21:13;24.85;;;6.43;;
78346;SDS011;67803;41.330;69.282;2023-04-25T01:23:44;18.73;;;6.65;;
78346;SDS011;67803;41.330;69.282;2023-04-25T01:26:15;22.25;;;6.43;;
78346;SDS011;67803;41.330;69.282;2023-04-25T01:28:46;18.48;;;5.97;;
78346;SDS011;67803;41.330;69.282;2023-04-25T01:31:17;25.92;;;7.55;;
78346;SDS011;67803;41.330;69.282;2023-04-25T01:33:48;26.85;;;8.52;;
78346;SDS011;67803;41.330;69.282;2023-04-25T01:36:19;27.10;;;8.73;;
78346;SDS011;67803;41.330;69.282;2023-04-25T01:38:50;26.15;;;9.45;;
78346;SDS011;67803;41.330;69.282;2023-04-25T01:41:21;23.02;;;9.57;;
78346;SDS011;67803;41.330;69.282;2023-04-25T01:43:53;31.15;;;9.50;;
78346;SDS011;67803;41.330;69.282;2023-04-25T01:46:23;25.15;;;9.95;;
78346;SDS011;67803;41.330;69.282;2023-04-25T01:48:54;31.85;;;10.20;;
78346;SDS011;67803;41.330;69.282;2023-04-25T01:51:24;28.20;;;8.70;;
78346;SDS011;67803;41.330;69.282;2023-04-25T01:53:55;24.42;;;8.50;;
78346;SDS011;67803;41.330;69.282;2023-04-25T01:56:29;27.50;;;9.45;;
78346;SDS011;67803;41.330;69.282;2023-04-25T01:59:00;31.67;;;9.32;;
78346;SDS011;67803;41.330;69.282;2023-04-25T02:01:31;28.27;;;10.52;;
78346;SDS011;67803;41.330;69.282;2023-04-25T02:04:01;26.00;;;9.90;;
78346;SDS011;67803;41.330;69.282;2023-04-25T02:06:32;24.13;;;9.32;;
78346;SDS011;67803;41.330;69.282;2023-04-25T02:09:02;29.70;;;10.50;;
78346;SDS011;67803;41.330;69.282;2023-04-25T02:11:33;27.98;;;10.55;;
78346;SDS011;67803;41.330;69.282;2023-04-25T02:14:03;25.70;;;9.68;;
78346;SDS011;67803;41.330;69.282;2023-04-25T02:16:34;28.17;;;10.10;;
78346;SDS011;67803;41.330;69.282;2023-04-25T02:19:05;25.08;;;9.85;;
78346;SDS011;67803;41.330;69.282;2023-04-25T02:21:36;29.40;;;9.55;;
78346;SDS011;67803;41.330;69.282;2023-04-25T02:24:07;32.55;;;10.15;;
78346;SDS011;67803;41.330;69.282;2023-04-25T02:26:37;28.10;;;9.85;;
78346;SDS011;67803;41.330;69.282;2023-04-25T02:29:08;28.70;;;9.93;;
78346;SDS011;67803;41.330;69.282;2023-04-25T02:31:39;25.88;;;10.10;;
78346;SDS011;67803;41.330;69.282;2023-04-25T02:34:11;23.27;;;9.38;;
78346;SDS011;67803;41.330;69.282;2023-04-25T02:36:41;31.73;;;8.77;;
78346;SDS011;67803;41.330;69.282;2023-04-25T02:39:11;24.48;;;8.57;;
78346;SDS011;67803;41.330;69.282;2023-04-25T02:41:42;20.58;;;8.77;;
78346;SDS011;67803;41.330;69.282;2023-04-25T02:44:12;27.27;;;8.70;;
78346;SDS011;67803;41.330;69.282;2023-04-25T02:46:43;26.10;;;8.10;;
78346;SDS011;67803;41.330;69.282;2023-04-25T02:49:13;23.23;;;7.47;;
78346;SDS011;67803;41.330;69.282;2023-04-25T02:51:44;21.00;;;6.43;;
78346;SDS011;67803;41.330;69.282;2023-04-25T02:54:15;20.38;;;6.35;;
78346;SDS011;67803;41.330;69.282;2023-04-25T02:56:45;18.33;;;6.43;;
78346;SDS011;67803;41.330;69.282;2023-04-25T02:59:16;17.75;;;5.78;;
78346;SDS011;67803;41.330;69.282;2023-04-25T03:01:46;21.00;;;5.85;;
78346;SDS011;67803;41.330;69.282;2023-04-25T03:04:17;14.32;;;6.00;;
78346;SDS011;67803;41.330;69.282;2023-04-25T03:06:51;15.00;;;5.53;;
78346;SDS011;67803;41.330;69.282;2023-04-25T03:09:22;18.88;;;5.35;;
78346;SDS011;67803;41.330;69.282;2023-04-25T03:11:53;21.10;;;5.38;;
78346;SDS011;67803;41.330;69.282;2023-04-25T03:14:23;17.42;;;5.65;;
78346;SDS011;67803;41.330;69.282;2023-04-25T03:16:54;16.92;;;5.75;;
78346;SDS011;67803;41.330;69.282;2023-04-25T03:19:24;18.85;;;5.68;;
78346;SDS011;67803;41.330;69.282;2023-04-25T03:21:55;19.75;;;5.75;;
78346;SDS011;67803;41.330;69.282;2023-04-25T03:24:25;13.00;;;4.70;;
78346;SDS011;67803;41.330;69.282;2023-04-25T03:26:57;15.15;;;5.15;;
78346;SDS011;67803;41.330;69.282;2023-04-25T03:29:27;16.75;;;5.43;;
78346;SDS011;67803;41.330;69.282;2023-04-25T03:31:58;13.02;;;5.05;;
78346;SDS011;67803;41.330;69.282;2023-04-25T03:34:29;13.88;;;5.22;;
78346;SDS011;67803;41.330;69.282;2023-04-25T03:36:59;18.77;;;5.00;;
78346;SDS011;67803;41.330;69.282;2023-04-25T03:39:31;20.08;;;5.72;;
78346;SDS011;67803;41.330;69.282;2023-04-25T03:42:02;16.63;;;5.45;;
78346;SDS011;67803;41.330;69.282;2023-04-25T03:44:33;18.77;;;5.57;;
78346;SDS011;67803;41.330;69.282;2023-04-25T03:47:03;16.25;;;4.85;;
78346;SDS011;67803;41.330;69.282;2023-04-25T03:49:34;16.92;;;5.85;;
78346;SDS011;67803;41.330;69.282;2023-04-25T03:52:04;21.80;;;7.07;;
78346;SDS011;67803;41.330;69.282;2023-04-25T03:54:35;18.15;;;6.10;;
78346;SDS011;67803;41.330;69.282;2023-04-25T03:57:06;20.60;;;5.70;;
78346;SDS011;67803;41.330;69.282;2023-04-25T03:59:36;17.00;;;6.22;;
78346;SDS011;67803;41.330;69.282;2023-04-25T04:02:06;13.23;;;6.35;;
78346;SDS011;67803;41.330;69.282;2023-04-25T04:04:37;17.08;;;5.65;;
78346;SDS011;67803;41.330;69.282;2023-04-25T04:07:08;20.88;;;7.18;;
78346;SDS011;67803;41.330;69.282;2023-04-25T04:09:39;20.10;;;6.25;;
78346;SDS011;67803;41.330;69.282;2023-04-25T04:12:10;20.90;;;6.40;;
78346;SDS011;67803;41.330;69.282;2023-04-25T04:14:40;19.20;;;7.35;;
78346;SDS011;67803;41.330;69.282;2023-04-25T04:17:11;23.20;;;6.80;;
78346;SDS011;67803;41.330;69.282;2023-04-25T04:19:41;20.95;;;6.35;;
78346;SDS011;67803;41.330;69.282;2023-04-25T04:22:11;18.73;;;7.22;;
78346;SDS011;67803;41.330;69.282;2023-04-25T04:24:42;20.35;;;6.68;;
78346;SDS011;67803;41.330;69.282;2023-04-25T04:27:14;17.42;;;7.25;;
78346;SDS011;67803;41.330;69.282;2023-04-25T04:29:45;21.25;;;7.88;;
78346;SDS011;67803;41.330;69.282;2023-04-25T04:32:16;17.67;;;7.25;;
78346;SDS011;67803;41.330;69.282;2023-04-25T04:34:47;23.60;;;7.40;;
78346;SDS011;67803;41.330;69.282;2023-04-25T04:37:19;15.35;;;7.55;;
78346;SDS011;67803;41.330;69.282;2023-04-25T04:39:51;23.48;;;7.70;;
78346;SDS011;67803;41.330;69.282;2023-04-25T04:42:22;18.35;;;7.60;;
78346;SDS011;67803;41.330;69.282;2023-04-25T04:44:55;17.90;;;8.13;;
78346;SDS011;67803;41.330;69.282;2023-04-25T04:47:25;17.58;;;7.55;;
78346;SDS011;67803;41.330;69.282;2023-04-25T04:50:00;23.48;;;7.60;;
78346;SDS011;67803;41.330;69.282;2023-04-25T04:52:31;21.98;;;7.20;;
78346;SDS011;67803;41.330;69.282;2023-04-25T04:55:02;17.00;;;6.88;;
78346;SDS011;67803;41.330;69.282;2023-04-25T04:57:33;25.02;;;8.70;;
78346;SDS011;67803;41.330;69.282;2023-04-25T05:00:05;22.30;;;7.68;;
78346;SDS011;67803;41.330;69.282;2023-04-25T05:02:40;20.63;;;7.78;;
78346;SDS011;67803;41.330;69.282;2023-04-25T05:05:11;20.40;;;7.15;;
78346;SDS011;67803;41.330;69.282;2023-04-25T05:07:41;22.98;;;7.50;;
78346;SDS011;67803;41.330;69.282;2023-04-25T05:10:12;15.55;;;6.00;;
78346;SDS011;67803;41.330;69.282;2023-04-25T05:12:42;26.00;;;7.65;;
78346;SDS011;67803;41.330;69.282;2023-04-25T05:15:13;24.05;;;7.05;;
78346;SDS011;67803;41.330;69.282;2023-04-25T05:17:43;23.00;;;7.05;;
78346;SDS011;67803;41.330;69.282;2023-04-25T05:20:14;21.60;;;7.05;;
78346;SDS011;67803;41.330;69.282;2023-04-25T05:22:45;20.85;;;7.50;;
78346;SDS011;67803;41.330;69.282;2023-04-25T05:25:15;21.20;;;7.47;;
78346;SDS011;67803;41.330;69.282;2023-04-25T05:27:46;21.98;;;7.97;;
78346;SDS011;67803;41.330;69.282;2023-04-25T05:30:16;24.20;;;8.07;;
78346;SDS011;67803;41.330;69.282;2023-04-25T05:32:47;18.00;;;6.35;;
78346;SDS011;67803;41.330;69.282;2023-04-25T05:35:18;20.90;;;8.27;;
78346;SDS011;67803;41.330;69.282;2023-04-25T05:37:48;23.77;;;7.70;;
78346;SDS011;67803;41.330;69.282;2023-04-25T05:40:19;22.08;;;8.77;;
78346;SDS011;67803;41.330;69.282;2023-04-25T05:42:49;25.38;;;8.63;;
78346;SDS011;67803;41.330;69.282;2023-04-25T05:45:20;26.88;;;9.43;;
78346;SDS011;67803;41.330;69.282;2023-04-25T05:47:50;21.60;;;8.07;;
78346;SDS011;67803;41.330;69.282;2023-04-25T05:50:21;62.78;;;11.40;;
78346;SDS011;67803;41.330;69.282;2023-04-25T05:52:51;35.28;;;9.63;;
78346;SDS011;67803;41.330;69.282;2023-04-25T05:55:22;31.55;;;8.70;;
78346;SDS011;67803;41.330;69.282;2023-04-25T05:57:53;22.20;;;9.07;;
78346;SDS011;67803;41.330;69.282;2023-04-25T06:00:23;30.40;;;10.38;;
78346;SDS011;67803;41.330;69.282;2023-04-25T06:02:54;24.92;;;8.57;;
78346;SDS011;67803;41.330;69.282;2023-04-25T06:05:24;31.08;;;9.98;;
78346;SDS011;67803;41.330;69.282;2023-04-25T06:07:55;26.02;;;9.75;;
78346;SDS011;67803;41.330;69.282;2023-04-25T06:10:25;31.38;;;10.57;;
78346;SDS011;67803;41.330;69.282;2023-04-25T06:12:56;23.38;;;10.60;;
78346;SDS011;67803;41.330;69.282;2023-04-25T06:15:26;20.58;;;8.45;;
78346;SDS011;67803;41.330;69.282;2023-04-25T06:17:56;22.42;;;9.32;;
78346;SDS011;67803;41.330;69.282;2023-04-25T06:20:27;27.55;;;9.50;;
78346;SDS011;67803;41.330;69.282;2023-04-25T06:22:57;30.42;;;10.63;;
78346;SDS011;67803;41.330;69.282;2023-04-25T06:25:28;26.05;;;11.50;;
78346;SDS011;67803;41.330;69.282;2023-04-25T06:27:58;24.77;;;10.60;;
78346;SDS011;67803;41.330;69.282;2023-04-25T06:30:29;25.95;;;10.38;;
78346;SDS011;67803;41.330;69.282;2023-04-25T06:33:00;29.02;;;9.73;;
78346;SDS011;67803;41.330;69.282;2023-04-25T06:35:30;27.13;;;9.75;;
78346;SDS011;67803;41.330;69.282;2023-04-25T06:38:01;24.08;;;8.90;;
78346;SDS011;67803;41.330;69.282;2023-04-25T06:40:31;31.45;;;9.43;;
78346;SDS011;67803;41.330;69.282;2023-04-25T06:43:02;26.23;;;8.73;;
78346;SDS011;67803;41.330;69.282;2023-04-25T06:45:32;31.92;;;9.27;;
78346;SDS011;67803;41.330;69.282;2023-04-25T06:48:03;20.77;;;8.60;;
78346;SDS011;67803;41.330;69.282;2023-04-25T06:50:33;24.85;;;9.02;;
78346;SDS011;67803;41.330;69.282;2023-04-25T06:53:04;25.85;;;9.57;;
78346;SDS011;67803;41.330;69.282;2023-04-25T06:55:35;26.50;;;9.25;;
78346;SDS011;67803;41.330;69.282;2023-04-25T06:58:05;25.83;;;9.18;;
78346;SDS011;67803;41.330;69.282;2023-04-25T07:00:37;28.08;;;8.93;;
78346;SDS011;67803;41.330;69.282;2023-04-25T07:03:07;26.25;;;9.45;;
78346;SDS011;67803;41.330;69.282;2023-04-25T07:05:38;24.15;;;10.02;;
78346;SDS011;67803;41.330;69.282;2023-04-25T07:08:08;27.05;;;9.07;;
78346;SDS011;67803;41.330;69.282;2023-04-25T07:10:39;25.15;;;10.43;;
78346;SDS011;67803;41.330;69.282;2023-04-25T07:13:10;23.13;;;9.40;;
78346;SDS011;67803;41.330;69.282;2023-04-25T07:15:40;26.13;;;9.57;;
78346;SDS011;67803;41.330;69.282;2023-04-25T07:18:12;26.55;;;10.75;;
78346;SDS011;67803;41.330;69.282;2023-04-25T07:20:42;28.13;;;11.02;;
78346;SDS011;67803;41.330;69.282;2023-04-25T07:23:13;31.27;;;11.25;;
78346;SDS011;67803;41.330;69.282;2023-04-25T07:25:43;33.45;;;9.88;;
78346;SDS011;67803;41.330;69.282;2023-04-25T07:28:14;27.27;;;9.65;;
78346;SDS011;67803;41.330;69.282;2023-04-25T07:30:44;22.65;;;9.48;;
78346;SDS011;67803;41.330;69.282;2023-04-25T07:33:15;26.10;;;9.77;;
78346;SDS011;67803;41.330;69.282;2023-04-25T07:35:45;31.48;;;14.65;;
78346;SDS011;67803;41.330;69.282;2023-04-25T07:38:16;33.78;;;11.45;;
78346;SDS011;67803;41.330;69.282;2023-04-25T07:40:47;27.15;;;10.15;;
78346;SDS011;67803;41.330;69.282;2023-04-25T07:43:17;26.58;;;9.52;;
78346;SDS011;67803;41.330;69.282;2023-04-25T07:45:48;27.35;;;9.63;;
78346;SDS011;67803;41.330;69.282;2023-04-25T07:48:18;27.00;;;8.93;;
78346;SDS011;67803;41.330;69.282;2023-04-25T07:50:49;28.23;;;10.07;;
78346;SDS011;67803;41.330;69.282;2023-04-25T07:53:20;26.27;;;10.35;;
78346;SDS011;67803;41.330;69.282;2023-04-25T07:55:50;23.63;;;9.45;;
78346;SDS011;67803;41.330;69.282;2023-04-25T07:58:21;33.60;;;10.55;;
78346;SDS011;67803;41.330;69.282;2023-04-25T08:00:52;34.47;;;10.30;;
78346;SDS011;67803;41.330;69.282;2023-04-25T08:03:22;26.75;;;10.48;;
78346;SDS011;67803;41.330;69.282;2023-04-25T08:05:52;30.05;;;11.35;;
78346;SDS011;67803;41.330;69.282;2023-04-25T08:08:23;25.98;;;11.50;;
78346;SDS011;67803;41.330;69.282;2023-04-25T08:10:53;29.35;;;10.82;;
78346;SDS011;67803;41.330;69.282;2023-04-25T08:13:24;30.20;;;12.35;;
78346;SDS011;67803;41.330;69.282;2023-04-25T08:15:54;32.92;;;11.00;;
78346;SDS011;67803;41.330;69.282;2023-04-25T08:18:25;27.80;;;11.88;;
78346;SDS011;67803;41.330;69.282;2023-04-25T08:20:55;26.23;;;11.15;;
78346;SDS011;67803;41.330;69.282;2023-04-25T08:23:26;32.50;;;10.05;;
78346;SDS011;67803;41.330;69.282;2023-04-25T08:25:56;26.52;;;9.75;;
78346;SDS011;67803;41.330;69.282;2023-04-25T08:28:27;31.20;;;10.75;;
78346;SDS011;67803;41.330;69.282;2023-04-25T08:30:57;30.02;;;10.27;;
78346;SDS011;67803;41.330;69.282;2023-04-25T08:33:28;23.35;;;9.23;;
78346;SDS011;67803;41.330;69.282;2023-04-25T08:35:58;28.40;;;10.18;;
78346;SDS011;67803;41.330;69.282;2023-04-25T08:38:29;25.40;;;10.40;;
78346;SDS011;67803;41.330;69.282;2023-04-25T08:41:00;28.10;;;10.40;;
78346;SDS011;67803;41.330;69.282;2023-04-25T08:43:31;29.17;;;9.60;;
78346;SDS011;67803;41.330;69.282;2023-04-25T08:46:02;21.13;;;8.98;;
78346;SDS011;67803;41.330;69.282;2023-04-25T08:48:33;35.47;;;10.38;;
78346;SDS011;67803;41.330;69.282;2023-04-25T08:51:05;31.33;;;10.93;;
78346;SDS011;67803;41.330;69.282;2023-04-25T08:53:37;30.60;;;9.85;;
78346;SDS011;67803;41.330;69.282;2023-04-25T08:56:09;30.13;;;10.02;;
78346;SDS011;67803;41.330;69.282;2023-04-25T08:58:49;29.02;;;11.60;;
78346;SDS011;67803;41.330;69.282;2023-04-25T09:01:20;35.88;;;12.45;;
78346;SDS011;67803;41.330;69.282;2023-04-25T09:03:51;27.17;;;12.13;;
78346;SDS011;67803;41.330;69.282;2023-04-25T09:06:21;27.63;;;12.65;;
78346;SDS011;67803;41.330;69.282;2023-04-25T09:08:52;29.80;;;12.50;;
78346;SDS011;67803;41.330;69.282;2023-04-25T09:11:23;29.52;;;15.50;;
78346;SDS011;67803;41.330;69.282;2023-04-25T09:14:09;31.52;;;12.25;;
78346;SDS011;67803;41.330;69.282;2023-04-25T09:19:40;33.92;;;15.38;;
78346;SDS011;67803;41.330;69.282;2023-04-25T09:22:10;35.10;;;14.60;;
78346;SDS011;67803;41.330;69.282;2023-04-25T09:24:44;28.83;;;12.48;;
78346;SDS011;67803;41.330;69.282;2023-04-25T09:27:19;30.65;;;14.27;;
78346;SDS011;67803;41.330;69.282;2023-04-25T09:29:58;28.15;;;12.45;;
78346;SDS011;67803;41.330;69.282;2023-04-25T09:32:31;30.92;;;12.05;;
78346;SDS011;67803;41.330;69.282;2023-04-25T09:35:02;34.25;;;13.68;;
78346;SDS011;67803;41.330;69.282;2023-04-25T09:37:33;30.48;;;13.15;;
78346;SDS011;67803;41.330;69.282;2023-04-25T09:40:04;34.20;;;13.43;;
78346;SDS011;67803;41.330;69.282;2023-04-25T09:42:35;37.25;;;13.57;;
78346;SDS011;67803;41.330;69.282;2023-04-25T09:45:07;26.42;;;12.30;;
78346;SDS011;67803;41.330;69.282;2023-04-25T09:47:37;32.05;;;13.43;;
78346;SDS011;67803;41.330;69.282;2023-04-25T09:50:15;28.40;;;11.88;;
78346;SDS011;67803;41.330;69.282;2023-04-25T09:52:46;33.22;;;13.18;;
78346;SDS011;67803;41.330;69.282;2023-04-25T09:55:32;25.92;;;12.55;;
78346;SDS011;67803;41.330;69.282;2023-04-25T09:58:04;26.00;;;11.85;;
78346;SDS011;67803;41.330;69.282;2023-04-25T10:00:35;22.80;;;12.00;;
78346;SDS011;67803;41.330;69.282;2023-04-25T10:03:08;32.30;;;12.10;;
78346;SDS011;67803;41.330;69.282;2023-04-25T10:05:38;29.30;;;11.40;;
78346;SDS011;67803;41.330;69.282;2023-04-25T10:08:09;25.52;;;11.05;;
78346;SDS011;67803;41.330;69.282;2023-04-25T10:10:40;25.42;;;11.75;;
78346;SDS011;67803;41.330;69.282;2023-04-25T10:13:11;27.05;;;10.63;;
78346;SDS011;67803;41.330;69.282;2023-04-25T10:15:41;25.77;;;10.55;;
78346;SDS011;67803;41.330;69.282;2023-04-25T10:18:12;27.30;;;10.18;;
78346;SDS011;67803;41.330;69.282;2023-04-25T10:20:42;24.35;;;10.23;;
78346;SDS011;67803;41.330;69.282;2023-04-25T10:23:13;28.00;;;9.80;;
78346;SDS011;67803;41.330;69.282;2023-04-25T10:25:44;21.13;;;9.73;;
78346;SDS011;67803;41.330;69.282;2023-04-25T10:28:15;24.60;;;9.45;;
78346;SDS011;67803;41.330;69.282;2023-04-25T10:31:19;26.92;;;10.57;;
78346;SDS011;67803;41.330;69.282;2023-04-25T10:33:42;23.63;;;10.50;;
78346;SDS011;67803;41.330;69.282;2023-04-25T10:36:13;16.27;;;7.90;;
78346;SDS011;67803;41.330;69.282;2023-04-25T10:38:45;23.83;;;8.45;;
78346;SDS011;67803;41.330;69.282;2023-04-25T10:41:17;22.50;;;8.23;;
78346;SDS011;67803;41.330;69.282;2023-04-25T10:43:49;20.05;;;7.32;;
78346;SDS011;67803;41.330;69.282;2023-04-25T10:46:24;17.33;;;7.50;;
78346;SDS011;67803;41.330;69.282;2023-04-25T10:48:55;19.75;;;8.18;;
78346;SDS011;67803;41.330;69.282;2023-04-25T10:51:27;24.33;;;7.72;;
78346;SDS011;67803;41.330;69.282;2023-04-25T10:53:58;19.25;;;7.07;;
78346;SDS011;67803;41.330;69.282;2023-04-25T10:56:30;16.60;;;6.43;;
78346;SDS011;67803;41.330;69.282;2023-04-25T11:01:36;20.25;;;6.57;;
78346;SDS011;67803;41.330;69.282;2023-04-25T11:04:18;18.75;;;9.52;;
78346;SDS011;67803;41.330;69.282;2023-04-25T11:09:20;16.02;;;5.65;;
78346;SDS011;67803;41.330;69.282;2023-04-25T11:11:57;20.00;;;5.82;;
78346;SDS011;67803;41.330;69.282;2023-04-25T11:14:28;17.17;;;5.40;;
78346;SDS011;67803;41.330;69.282;2023-04-25T11:16:59;18.05;;;5.43;;
78346;SDS011;67803;41.330;69.282;2023-04-25T11:19:30;12.00;;;5.18;;
78346;SDS011;67803;41.330;69.282;2023-04-25T11:22:01;14.05;;;5.13;;
78346;SDS011;67803;41.330;69.282;2023-04-25T11:24:33;13.98;;;5.03;;
78346;SDS011;67803;41.330;69.282;2023-04-25T11:27:04;19.02;;;4.90;;
78346;SDS011;67803;41.330;69.282;2023-04-25T11:29:38;25.30;;;6.35;;
78346;SDS011;67803;41.330;69.282;2023-04-25T11:32:08;9.60;;;4.50;;
78346;SDS011;67803;41.330;69.282;2023-04-25T11:34:39;22.38;;;5.53;;
78346;SDS011;67803;41.330;69.282;2023-04-25T11:37:13;16.55;;;5.50;;
78346;SDS011;67803;41.330;69.282;2023-04-25T11:39:44;16.17;;;5.38;;
78346;SDS011;67803;41.330;69.282;2023-04-25T11:42:16;13.52;;;4.40;;
78346;SDS011;67803;41.330;69.282;2023-04-25T11:44:46;16.35;;;5.03;;
78346;SDS011;67803;41.330;69.282;2023-04-25T11:47:17;17.75;;;5.15;;
78346;SDS011;67803;41.330;69.282;2023-04-25T11:49:48;15.88;;;5.78;;
78346;SDS011;67803;41.330;69.282;2023-04-25T11:52:18;15.13;;;6.18;;
78346;SDS011;67803;41.330;69.282;2023-04-25T11:54:49;20.63;;;5.75;;
78346;SDS011;67803;41.330;69.282;2023-04-25T11:57:19;27.23;;;6.47;;
78346;SDS011;67803;41.330;69.282;2023-04-25T11:59:50;18.55;;;5.50;;
78346;SDS011;67803;41.330;69.282;2023-04-25T12:02:24;12.50;;;5.13;;
78346;SDS011;67803;41.330;69.282;2023-04-25T12:04:58;16.67;;;5.65;;
78346;SDS011;67803;41.330;69.282;2023-04-25T12:07:29;13.68;;;4.45;;
78346;SDS011;67803;41.330;69.282;2023-04-25T12:10:04;12.65;;;5.10;;
78346;SDS011;67803;41.330;69.282;2023-04-25T12:12:34;17.60;;;5.25;;
78346;SDS011;67803;41.330;69.282;2023-04-25T12:15:09;14.98;;;4.90;;
78346;SDS011;67803;41.330;69.282;2023-04-25T12:17:40;14.93;;;5.65;;
78346;SDS011;67803;41.330;69.282;2023-04-25T12:20:14;17.58;;;4.78;;
78346;SDS011;67803;41.330;69.282;2023-04-25T12:22:48;13.40;;;4.88;;
78346;SDS011;67803;41.330;69.282;2023-04-25T12:31:03;11.30;;;3.78;;
78346;SDS011;67803;41.330;69.282;2023-04-25T12:33:37;18.35;;;4.40;;
78346;SDS011;67803;41.330;69.282;2023-04-25T12:36:07;14.45;;;4.75;;
78346;SDS011;67803;41.330;69.282;2023-04-25T12:38:39;20.83;;;10.10;;
78346;SDS011;67803;41.330;69.282;2023-04-25T12:41:10;13.63;;;5.22;;
78346;SDS011;67803;41.330;69.282;2023-04-25T12:43:40;10.77;;;3.25;;
78346;SDS011;67803;41.330;69.282;2023-04-25T12:46:11;13.50;;;3.25;;
78346;SDS011;67803;41.330;69.282;2023-04-25T12:48:41;13.45;;;7.43;;
78346;SDS011;67803;41.330;69.282;2023-04-25T12:51:12;10.50;;;4.07;;
78346;SDS011;67803;41.330;69.282;2023-04-25T12:53:42;22.40;;;9.60;;
78346;SDS011;67803;41.330;69.282;2023-04-25T12:56:13;16.77;;;10.63;;
78346;SDS011;67803;41.330;69.282;2023-04-25T12:58:43;16.38;;;3.50;;
78346;SDS011;67803;41.330;69.282;2023-04-25T13:01:14;11.85;;;3.65;;
78346;SDS011;67803;41.330;69.282;2023-04-25T13:03:44;14.40;;;6.85;;
78346;SDS011;67803;41.330;69.282;2023-04-25T13:06:15;12.98;;;3.85;;
78346;SDS011;67803;41.330;69.282;2023-04-25T13:08:46;11.85;;;3.25;;
78346;SDS011;67803;41.330;69.282;2023-04-25T13:11:16;12.20;;;5.15;;
78346;SDS011;67803;41.330;69.282;2023-04-25T13:13:47;7.13;;;2.50;;
78346;SDS011;67803;41.330;69.282;2023-04-25T13:16:17;10.50;;;3.17;;
78346;SDS011;67803;41.330;69.282;2023-04-25T13:18:50;8.13;;;2.30;;
78346;SDS011;67803;41.330;69.282;2023-04-25T13:21:21;12.32;;;3.35;;
78346;SDS011;67803;41.330;69.282;2023-04-25T13:23:51;16.05;;;8.52;;
78346;SDS011;67803;41.330;69.282;2023-04-25T13:26:22;6.65;;;2.72;;
78346;SDS011;67803;41.330;69.282;2023-04-25T13:28:52;17.13;;;7.97;;
78346;SDS011;67803;41.330;69.282;2023-04-25T13:31:23;8.30;;;2.85;;
78346;SDS011;67803;41.330;69.282;2023-04-25T13:33:53;11.77;;;4.38;;
78346;SDS011;67803;41.330;69.282;2023-04-25T13:36:24;13.25;;;2.40;;
78346;SDS011;67803;41.330;69.282;2023-04-25T13:38:54;13.82;;;4.82;;
78346;SDS011;67803;41.330;69.282;2023-04-25T13:41:25;8.68;;;3.75;;
78346;SDS011;67803;41.330;69.282;2023-04-25T13:43:55;12.50;;;4.25;;
78346;SDS011;67803;41.330;69.282;2023-04-25T13:46:26;16.40;;;5.38;;
78346;SDS011;67803;41.330;69.282;2023-04-25T13:48:56;11.07;;;2.92;;
78346;SDS011;67803;41.330;69.282;2023-04-25T13:51:27;13.85;;;5.10;;
78346;SDS011;67803;41.330;69.282;2023-04-25T13:53:57;10.48;;;2.67;;
78346;SDS011;67803;41.330;69.282;2023-04-25T13:56:28;17.67;;;8.55;;
78346;SDS011;67803;41.330;69.282;2023-04-25T13:58:58;11.52;;;4.07;;
78346;SDS011;67803;41.330;69.282;2023-04-25T14:01:29;10.75;;;3.05;;
78346;SDS011;67803;41.330;69.282;2023-04-25T14:04:01;7.80;;;2.22;;
78346;SDS011;67803;41.330;69.282;2023-04-25T14:06:33;5.88;;;2.50;;
78346;SDS011;67803;41.330;69.282;2023-04-25T14:09:04;11.55;;;6.05;;
78346;SDS011;67803;41.330;69.282;2023-04-25T14:11:36;16.75;;;6.43;;
78346;SDS011;67803;41.330;69.282;2023-04-25T14:14:07;10.00;;;3.95;;
78346;SDS011;67803;41.330;69.282;2023-04-25T14:16:37;18.15;;;5.40;;
78346;SDS011;67803;41.330;69.282;2023-04-25T14:19:08;16.60;;;6.85;;
78346;SDS011;67803;41.330;69.282;2023-04-25T14:21:39;12.82;;;7.47;;
78346;SDS011;67803;41.330;69.282;2023-04-25T14:24:10;28.13;;;18.00;;
78346;SDS011;67803;41.330;69.282;2023-04-25T14:26:43;31.42;;;21.92;;
78346;SDS011;67803;41.330;69.282;2023-04-25T14:29:14;28.30;;;18.30;;
78346;SDS011;67803;41.330;69.282;2023-04-25T14:31:44;15.77;;;5.50;;
78346;SDS011;67803;41.330;69.282;2023-04-25T14:34:15;18.10;;;6.93;;
78346;SDS011;67803;41.330;69.282;2023-04-25T14:36:45;16.73;;;5.07;;
78346;SDS011;67803;41.330;69.282;2023-04-25T14:39:16;21.70;;;7.65;;
78346;SDS011;67803;41.330;69.282;2023-04-25T14:41:47;24.30;;;10.95;;
78346;SDS011;67803;41.330;69.282;2023-04-25T14:44:18;20.27;;;6.78;;
78346;SDS011;67803;41.330;69.282;2023-04-25T14:46:48;10.48;;;4.18;;
78346;SDS011;67803;41.330;69.282;2023-04-25T14:49:21;19.73;;;5.47;;
78346;SDS011;67803;41.330;69.282;2023-04-25T14:51:52;15.63;;;4.90;;
78346;SDS011;67803;41.330;69.282;2023-04-25T14:54:22;18.90;;;5.13;;